Terminal Aerodrome Forecast
Issued by NWS

Home | Current Version | Previous Version | Text Only | Print | Product List | Glossary On
Versions: 1 2 3 4 5 6 7 8 9 10 11 12 13 14 15 16 17 18 19
000
FTUS45 KTFX 171720
TAFGTF
TAF
KGTF 171720Z 1718/1818 21015KT P6SM SCT110 BKN150
      TEMPO 1719/1722 23015G23KT
     FM180600 21022KT P6SM SCT100 BKN150=

USA.gov is the U.S. government's official web portal to all federal, state and local government web resources and services.